Main page
METAR-TAF:

METAR-TAF

Airports :

Žilina, Slovakia

Žilina Airport

latitude: 49-14N, longitude: 018-36-49E, elevation: 312 m

Current weather observation

The report was made 15 minutes ago, at 22:30 UTC
Wind 2 kt from variable directions
Temperature 6°C
Humidity 93%
Pressure 1018 hPa
Visibility 10 km or more
Few clouds at a height of 400 ft

METAR: LZZI 262230Z VRB02KT 9999 FEW004 06/05 Q1018

Time: 00:45 (22:45 UTC)

Forecast

The report was made 2 hours and 45 minutes ago, at 20:00 UTC
Forecast valid from 26 at 21 UTC to 27 at 06 UTC
Wind 2 kt from variable directions
Visibility 10 km or more
no clouds below 1500 m and no cumulonimbus
Temporary
from 26 at 23 UTC to 27 at 06 UTC
Visibility: 2000 m
Scattered clouds at a height of 200 ft
Broken clouds at a height of 400 ft
mist
Probability 40% :
Temporary
from 27 at 00 UTC to 27 at 05 UTC
Visibility: 0600 m
Broken clouds at a height of 100 ft
fog

TAF: LZZI 262000Z 2621/2706 VRB02KT CAVOK TEMPO 2623/2706 2000 BR SCT002 BKN004 PROB40 TEMPO 2700/2705 0600 FG BKN001

Weather observations and forecasts of more than 4000 airports (METAR and TAF reports).

The available stations are represented by yellow and red dots on the map.

Hover mouse over dot to see the name of the station.

Then click to see weather observations and forecasts.

To change the map : click on the green buttons with a black cross to zoom in, on the green button with a dash to zoom out, or on the green arrows for adjacent maps.


METAR-TAF: